sensor_id;sensor_type;location;lat;lon;timestamp;P1;durP1;ratioP1;P2;durP2;ratioP2
14900;SDS011;7542;49.078;9.194;2023-10-31T00:00:15;1.38;;;1.30;;
14900;SDS011;7542;49.078;9.194;2023-10-31T00:01:19;0.75;;;0.75;;
14900;SDS011;7542;49.078;9.194;2023-10-31T00:02:22;0.80;;;0.80;;
14900;SDS011;7542;49.078;9.194;2023-10-31T00:03:25;0.80;;;0.80;;
14900;SDS011;7542;49.078;9.194;2023-10-31T00:04:28;1.00;;;1.00;;
14900;SDS011;7542;49.078;9.194;2023-10-31T00:05:30;0.98;;;0.90;;
14900;SDS011;7542;49.078;9.194;2023-10-31T00:06:33;0.90;;;0.90;;
14900;SDS011;7542;49.078;9.194;2023-10-31T00:07:35;0.73;;;0.73;;
14900;SDS011;7542;49.078;9.194;2023-10-31T00:08:37;0.90;;;0.90;;
14900;SDS011;7542;49.078;9.194;2023-10-31T00:09:40;1.00;;;1.00;;
14900;SDS011;7542;49.078;9.194;2023-10-31T00:10:42;1.08;;;0.98;;
14900;SDS011;7542;49.078;9.194;2023-10-31T00:11:46;1.00;;;1.00;;
14900;SDS011;7542;49.078;9.194;2023-10-31T00:12:49;0.98;;;0.98;;
14900;SDS011;7542;49.078;9.194;2023-10-31T00:13:51;0.80;;;0.80;;
14900;SDS011;7542;49.078;9.194;2023-10-31T00:14:53;1.13;;;1.13;;
14900;SDS011;7542;49.078;9.194;2023-10-31T00:15:56;0.93;;;0.93;;
14900;SDS011;7542;49.078;9.194;2023-10-31T00:16:59;0.80;;;0.80;;
14900;SDS011;7542;49.078;9.194;2023-10-31T00:18:01;1.10;;;1.10;;
14900;SDS011;7542;49.078;9.194;2023-10-31T00:19:04;0.80;;;0.80;;
14900;SDS011;7542;49.078;9.194;2023-10-31T00:20:07;0.80;;;0.80;;
14900;SDS011;7542;49.078;9.194;2023-10-31T00:21:09;0.90;;;0.90;;
14900;SDS011;7542;49.078;9.194;2023-10-31T00:22:12;0.70;;;0.70;;
14900;SDS011;7542;49.078;9.194;2023-10-31T00:23:15;0.80;;;0.80;;
14900;SDS011;7542;49.078;9.194;2023-10-31T00:24:18;0.93;;;0.93;;
14900;SDS011;7542;49.078;9.194;2023-10-31T00:25:20;1.00;;;1.00;;
14900;SDS011;7542;49.078;9.194;2023-10-31T00:26:23;0.90;;;0.90;;
14900;SDS011;7542;49.078;9.194;2023-10-31T00:27:26;1.10;;;1.10;;
14900;SDS011;7542;49.078;9.194;2023-10-31T00:28:28;0.80;;;0.80;;
14900;SDS011;7542;49.078;9.194;2023-10-31T00:29:30;0.88;;;0.88;;
14900;SDS011;7542;49.078;9.194;2023-10-31T00:30:33;0.80;;;0.80;;
14900;SDS011;7542;49.078;9.194;2023-10-31T00:31:35;0.93;;;0.93;;
14900;SDS011;7542;49.078;9.194;2023-10-31T00:32:42;1.30;;;1.10;;
14900;SDS011;7542;49.078;9.194;2023-10-31T00:33:45;0.75;;;0.75;;
14900;SDS011;7542;49.078;9.194;2023-10-31T00:34:47;1.05;;;1.00;;
14900;SDS011;7542;49.078;9.194;2023-10-31T00:35:50;0.70;;;0.70;;
14900;SDS011;7542;49.078;9.194;2023-10-31T00:36:52;1.13;;;1.13;;
14900;SDS011;7542;49.078;9.194;2023-10-31T00:37:55;0.75;;;0.75;;
14900;SDS011;7542;49.078;9.194;2023-10-31T00:38:58;0.90;;;0.90;;
14900;SDS011;7542;49.078;9.194;2023-10-31T00:40:00;1.05;;;1.05;;
14900;SDS011;7542;49.078;9.194;2023-10-31T00:41:03;0.98;;;0.98;;
14900;SDS011;7542;49.078;9.194;2023-10-31T00:42:06;1.17;;;1.17;;
14900;SDS011;7542;49.078;9.194;2023-10-31T00:43:09;1.27;;;1.13;;
14900;SDS011;7542;49.078;9.194;2023-10-31T00:44:12;0.68;;;0.68;;
14900;SDS011;7542;49.078;9.194;2023-10-31T00:45:15;0.90;;;0.90;;
14900;SDS011;7542;49.078;9.194;2023-10-31T00:46:17;0.85;;;0.85;;
14900;SDS011;7542;49.078;9.194;2023-10-31T00:47:19;0.77;;;0.77;;
14900;SDS011;7542;49.078;9.194;2023-10-31T00:48:22;0.77;;;0.77;;
14900;SDS011;7542;49.078;9.194;2023-10-31T00:49:25;0.75;;;0.63;;
14900;SDS011;7542;49.078;9.194;2023-10-31T00:50:28;0.77;;;0.77;;
14900;SDS011;7542;49.078;9.194;2023-10-31T00:51:30;1.00;;;1.00;;
14900;SDS011;7542;49.078;9.194;2023-10-31T00:52:33;0.93;;;0.93;;
14900;SDS011;7542;49.078;9.194;2023-10-31T00:53:35;0.90;;;0.90;;
14900;SDS011;7542;49.078;9.194;2023-10-31T00:54:38;0.80;;;0.80;;
14900;SDS011;7542;49.078;9.194;2023-10-31T00:55:41;0.80;;;0.80;;
14900;SDS011;7542;49.078;9.194;2023-10-31T00:56:44;0.70;;;0.70;;
14900;SDS011;7542;49.078;9.194;2023-10-31T00:57:47;0.88;;;0.70;;
14900;SDS011;7542;49.078;9.194;2023-10-31T00:58:51;0.70;;;0.70;;
14900;SDS011;7542;49.078;9.194;2023-10-31T00:59:53;0.70;;;0.70;;
14900;SDS011;7542;49.078;9.194;2023-10-31T01:00:55;0.70;;;0.70;;
14900;SDS011;7542;49.078;9.194;2023-10-31T01:01:58;0.88;;;0.88;;
14900;SDS011;7542;49.078;9.194;2023-10-31T01:03:01;0.90;;;0.90;;
14900;SDS011;7542;49.078;9.194;2023-10-31T01:04:04;0.63;;;0.63;;
14900;SDS011;7542;49.078;9.194;2023-10-31T01:05:07;0.98;;;0.98;;
14900;SDS011;7542;49.078;9.194;2023-10-31T01:06:09;0.80;;;0.80;;
14900;SDS011;7542;49.078;9.194;2023-10-31T01:07:12;0.90;;;0.90;;
14900;SDS011;7542;49.078;9.194;2023-10-31T01:08:18;0.60;;;0.52;;
14900;SDS011;7542;49.078;9.194;2023-10-31T01:09:20;0.80;;;0.80;;
14900;SDS011;7542;49.078;9.194;2023-10-31T01:10:22;0.70;;;0.70;;
14900;SDS011;7542;49.078;9.194;2023-10-31T01:11:25;0.90;;;0.90;;
14900;SDS011;7542;49.078;9.194;2023-10-31T01:12:28;1.00;;;1.00;;
14900;SDS011;7542;49.078;9.194;2023-10-31T01:13:30;0.82;;;0.82;;
14900;SDS011;7542;49.078;9.194;2023-10-31T01:14:32;0.80;;;0.80;;
14900;SDS011;7542;49.078;9.194;2023-10-31T01:15:36;0.88;;;0.88;;
14900;SDS011;7542;49.078;9.194;2023-10-31T01:16:42;0.88;;;0.88;;
14900;SDS011;7542;49.078;9.194;2023-10-31T01:17:44;0.68;;;0.68;;
14900;SDS011;7542;49.078;9.194;2023-10-31T01:18:47;0.75;;;0.75;;
14900;SDS011;7542;49.078;9.194;2023-10-31T01:19:49;0.93;;;0.93;;
14900;SDS011;7542;49.078;9.194;2023-10-31T01:20:52;1.10;;;1.10;;
14900;SDS011;7542;49.078;9.194;2023-10-31T01:21:54;0.80;;;0.80;;
14900;SDS011;7542;49.078;9.194;2023-10-31T01:22:57;0.73;;;0.73;;
14900;SDS011;7542;49.078;9.194;2023-10-31T01:23:59;0.60;;;0.60;;
14900;SDS011;7542;49.078;9.194;2023-10-31T01:25:04;0.65;;;0.65;;
14900;SDS011;7542;49.078;9.194;2023-10-31T01:26:07;0.52;;;0.52;;
14900;SDS011;7542;49.078;9.194;2023-10-31T01:27:10;0.70;;;0.70;;
14900;SDS011;7542;49.078;9.194;2023-10-31T01:28:12;0.68;;;0.68;;
14900;SDS011;7542;49.078;9.194;2023-10-31T01:29:15;0.70;;;0.70;;
14900;SDS011;7542;49.078;9.194;2023-10-31T01:30:17;0.68;;;0.68;;
14900;SDS011;7542;49.078;9.194;2023-10-31T01:31:20;0.90;;;0.90;;
14900;SDS011;7542;49.078;9.194;2023-10-31T01:32:22;0.95;;;0.95;;
14900;SDS011;7542;49.078;9.194;2023-10-31T01:33:25;0.60;;;0.60;;
14900;SDS011;7542;49.078;9.194;2023-10-31T01:34:27;0.93;;;0.93;;
14900;SDS011;7542;49.078;9.194;2023-10-31T01:35:31;0.50;;;0.50;;
14900;SDS011;7542;49.078;9.194;2023-10-31T01:36:33;0.85;;;0.60;;
14900;SDS011;7542;49.078;9.194;2023-10-31T01:37:36;0.68;;;0.68;;
14900;SDS011;7542;49.078;9.194;2023-10-31T01:38:38;0.73;;;0.73;;
14900;SDS011;7542;49.078;9.194;2023-10-31T01:39:41;0.65;;;0.65;;
14900;SDS011;7542;49.078;9.194;2023-10-31T01:40:43;1.30;;;1.30;;
14900;SDS011;7542;49.078;9.194;2023-10-31T01:41:49;1.10;;;1.08;;
14900;SDS011;7542;49.078;9.194;2023-10-31T01:42:52;0.80;;;0.80;;
14900;SDS011;7542;49.078;9.194;2023-10-31T01:43:54;0.70;;;0.70;;
14900;SDS011;7542;49.078;9.194;2023-10-31T01:44:57;0.55;;;0.55;;
14900;SDS011;7542;49.078;9.194;2023-10-31T01:45:59;0.70;;;0.70;;
14900;SDS011;7542;49.078;9.194;2023-10-31T01:47:01;0.60;;;0.60;;
14900;SDS011;7542;49.078;9.194;2023-10-31T01:48:04;0.65;;;0.65;;
14900;SDS011;7542;49.078;9.194;2023-10-31T01:49:06;0.70;;;0.70;;
14900;SDS011;7542;49.078;9.194;2023-10-31T01:50:09;0.70;;;0.70;;
14900;SDS011;7542;49.078;9.194;2023-10-31T01:51:12;0.95;;;0.95;;
14900;SDS011;7542;49.078;9.194;2023-10-31T01:52:14;0.60;;;0.60;;
14900;SDS011;7542;49.078;9.194;2023-10-31T01:53:17;0.90;;;0.70;;
14900;SDS011;7542;49.078;9.194;2023-10-31T01:54:21;0.80;;;0.80;;
14900;SDS011;7542;49.078;9.194;2023-10-31T01:55:23;0.80;;;0.80;;
14900;SDS011;7542;49.078;9.194;2023-10-31T01:56:28;1.20;;;0.90;;
14900;SDS011;7542;49.078;9.194;2023-10-31T01:57:31;0.70;;;0.70;;
14900;SDS011;7542;49.078;9.194;2023-10-31T01:58:34;0.95;;;0.95;;
14900;SDS011;7542;49.078;9.194;2023-10-31T01:59:38;0.50;;;0.50;;
14900;SDS011;7542;49.078;9.194;2023-10-31T02:00:41;0.65;;;0.65;;
14900;SDS011;7542;49.078;9.194;2023-10-31T02:01:45;0.90;;;0.90;;
14900;SDS011;7542;49.078;9.194;2023-10-31T02:02:48;1.23;;;1.13;;
14900;SDS011;7542;49.078;9.194;2023-10-31T02:03:55;0.80;;;0.80;;
14900;SDS011;7542;49.078;9.194;2023-10-31T02:04:57;0.70;;;0.70;;
14900;SDS011;7542;49.078;9.194;2023-10-31T02:06:00;0.75;;;0.75;;
14900;SDS011;7542;49.078;9.194;2023-10-31T02:07:03;0.70;;;0.70;;
14900;SDS011;7542;49.078;9.194;2023-10-31T02:08:05;0.77;;;0.77;;
14900;SDS011;7542;49.078;9.194;2023-10-31T02:09:11;0.80;;;0.80;;
14900;SDS011;7542;49.078;9.194;2023-10-31T02:10:13;0.63;;;0.63;;
14900;SDS011;7542;49.078;9.194;2023-10-31T02:11:16;0.90;;;0.90;;
14900;SDS011;7542;49.078;9.194;2023-10-31T02:12:34;0.70;;;0.70;;
14900;SDS011;7542;49.078;9.194;2023-10-31T02:13:38;0.60;;;0.60;;
14900;SDS011;7542;49.078;9.194;2023-10-31T02:14:41;0.82;;;0.82;;
14900;SDS011;7542;49.078;9.194;2023-10-31T02:15:44;0.70;;;0.70;;
14900;SDS011;7542;49.078;9.194;2023-10-31T02:16:46;0.70;;;0.70;;
14900;SDS011;7542;49.078;9.194;2023-10-31T02:17:49;0.80;;;0.80;;
14900;SDS011;7542;49.078;9.194;2023-10-31T02:18:52;0.65;;;0.65;;
14900;SDS011;7542;49.078;9.194;2023-10-31T02:19:54;0.60;;;0.60;;
14900;SDS011;7542;49.078;9.194;2023-10-31T02:20:57;0.80;;;0.80;;
14900;SDS011;7542;49.078;9.194;2023-10-31T02:21:59;0.63;;;0.63;;
14900;SDS011;7542;49.078;9.194;2023-10-31T02:23:02;0.60;;;0.60;;
14900;SDS011;7542;49.078;9.194;2023-10-31T02:24:05;0.43;;;0.43;;
14900;SDS011;7542;49.078;9.194;2023-10-31T02:25:18;0.60;;;0.60;;
14900;SDS011;7542;49.078;9.194;2023-10-31T02:26:20;0.60;;;0.60;;
14900;SDS011;7542;49.078;9.194;2023-10-31T02:27:23;0.80;;;0.80;;
14900;SDS011;7542;49.078;9.194;2023-10-31T02:28:25;0.60;;;0.60;;
14900;SDS011;7542;49.078;9.194;2023-10-31T02:29:29;0.60;;;0.60;;
14900;SDS011;7542;49.078;9.194;2023-10-31T02:30:34;0.73;;;0.73;;
14900;SDS011;7542;49.078;9.194;2023-10-31T02:31:36;0.60;;;0.60;;
14900;SDS011;7542;49.078;9.194;2023-10-31T02:32:40;0.65;;;0.65;;
14900;SDS011;7542;49.078;9.194;2023-10-31T02:33:44;0.82;;;0.82;;
14900;SDS011;7542;49.078;9.194;2023-10-31T02:34:46;0.68;;;0.68;;
14900;SDS011;7542;49.078;9.194;2023-10-31T02:35:49;0.75;;;0.75;;
14900;SDS011;7542;49.078;9.194;2023-10-31T02:36:52;0.75;;;0.75;;
14900;SDS011;7542;49.078;9.194;2023-10-31T02:37:54;0.70;;;0.70;;
14900;SDS011;7542;49.078;9.194;2023-10-31T02:38:56;0.80;;;0.80;;
14900;SDS011;7542;49.078;9.194;2023-10-31T02:39:59;0.77;;;0.77;;
14900;SDS011;7542;49.078;9.194;2023-10-31T02:41:01;0.82;;;0.82;;
14900;SDS011;7542;49.078;9.194;2023-10-31T02:42:04;0.60;;;0.60;;
14900;SDS011;7542;49.078;9.194;2023-10-31T02:43:07;0.80;;;0.80;;
14900;SDS011;7542;49.078;9.194;2023-10-31T02:44:10;0.70;;;0.70;;
14900;SDS011;7542;49.078;9.194;2023-10-31T02:45:12;0.73;;;0.73;;
14900;SDS011;7542;49.078;9.194;2023-10-31T02:46:15;0.70;;;0.70;;
14900;SDS011;7542;49.078;9.194;2023-10-31T02:47:19;0.50;;;0.50;;
14900;SDS011;7542;49.078;9.194;2023-10-31T02:48:22;0.60;;;0.60;;
14900;SDS011;7542;49.078;9.194;2023-10-31T02:49:26;0.80;;;0.80;;
14900;SDS011;7542;49.078;9.194;2023-10-31T02:50:28;0.67;;;0.67;;
14900;SDS011;7542;49.078;9.194;2023-10-31T02:51:30;0.68;;;0.68;;
14900;SDS011;7542;49.078;9.194;2023-10-31T02:52:33;0.50;;;0.50;;
14900;SDS011;7542;49.078;9.194;2023-10-31T02:53:35;0.67;;;0.67;;
14900;SDS011;7542;49.078;9.194;2023-10-31T02:54:38;0.60;;;0.60;;
14900;SDS011;7542;49.078;9.194;2023-10-31T02:55:41;0.87;;;0.87;;
14900;SDS011;7542;49.078;9.194;2023-10-31T02:56:44;0.65;;;0.65;;
14900;SDS011;7542;49.078;9.194;2023-10-31T02:57:46;0.43;;;0.43;;
14900;SDS011;7542;49.078;9.194;2023-10-31T02:58:49;0.80;;;0.60;;
14900;SDS011;7542;49.078;9.194;2023-10-31T02:59:51;0.60;;;0.60;;
14900;SDS011;7542;49.078;9.194;2023-10-31T03:00:54;0.70;;;0.70;;
14900;SDS011;7542;49.078;9.194;2023-10-31T03:01:57;0.60;;;0.60;;
14900;SDS011;7542;49.078;9.194;2023-10-31T03:02:59;0.57;;;0.57;;
14900;SDS011;7542;49.078;9.194;2023-10-31T03:04:02;0.57;;;0.57;;
14900;SDS011;7542;49.078;9.194;2023-10-31T03:05:04;0.50;;;0.50;;
14900;SDS011;7542;49.078;9.194;2023-10-31T03:06:07;0.83;;;0.50;;
14900;SDS011;7542;49.078;9.194;2023-10-31T03:07:10;0.70;;;0.70;;
14900;SDS011;7542;49.078;9.194;2023-10-31T03:08:12;0.45;;;0.45;;
14900;SDS011;7542;49.078;9.194;2023-10-31T03:09:15;0.63;;;0.63;;
14900;SDS011;7542;49.078;9.194;2023-10-31T03:10:17;0.63;;;0.63;;
14900;SDS011;7542;49.078;9.194;2023-10-31T03:11:24;0.50;;;0.50;;
14900;SDS011;7542;49.078;9.194;2023-10-31T03:12:28;0.60;;;0.60;;
14900;SDS011;7542;49.078;9.194;2023-10-31T03:13:30;0.52;;;0.52;;
14900;SDS011;7542;49.078;9.194;2023-10-31T03:14:32;0.77;;;0.77;;
14900;SDS011;7542;49.078;9.194;2023-10-31T03:15:35;0.70;;;0.70;;
14900;SDS011;7542;49.078;9.194;2023-10-31T03:16:37;0.70;;;0.70;;
14900;SDS011;7542;49.078;9.194;2023-10-31T03:17:40;0.50;;;0.50;;
14900;SDS011;7542;49.078;9.194;2023-10-31T03:18:43;0.60;;;0.60;;
14900;SDS011;7542;49.078;9.194;2023-10-31T03:19:45;1.55;;;0.63;;
14900;SDS011;7542;49.078;9.194;2023-10-31T03:20:47;0.63;;;0.63;;
14900;SDS011;7542;49.078;9.194;2023-10-31T03:21:50;0.77;;;0.70;;
14900;SDS011;7542;49.078;9.194;2023-10-31T03:22:52;0.67;;;0.67;;
14900;SDS011;7542;49.078;9.194;2023-10-31T03:23:55;0.60;;;0.60;;
14900;SDS011;7542;49.078;9.194;2023-10-31T03:24:58;0.50;;;0.50;;
14900;SDS011;7542;49.078;9.194;2023-10-31T03:26:00;0.40;;;0.40;;
14900;SDS011;7542;49.078;9.194;2023-10-31T03:27:03;0.60;;;0.60;;
14900;SDS011;7542;49.078;9.194;2023-10-31T03:28:16;0.70;;;0.70;;
14900;SDS011;7542;49.078;9.194;2023-10-31T03:29:20;0.60;;;0.60;;
14900;SDS011;7542;49.078;9.194;2023-10-31T03:30:23;0.60;;;0.60;;
14900;SDS011;7542;49.078;9.194;2023-10-31T03:31:25;0.50;;;0.50;;
14900;SDS011;7542;49.078;9.194;2023-10-31T03:32:27;0.60;;;0.60;;
14900;SDS011;7542;49.078;9.194;2023-10-31T03:33:30;0.77;;;0.77;;
14900;SDS011;7542;49.078;9.194;2023-10-31T03:34:33;0.52;;;0.45;;
14900;SDS011;7542;49.078;9.194;2023-10-31T03:35:36;0.43;;;0.43;;
14900;SDS011;7542;49.078;9.194;2023-10-31T03:36:38;0.50;;;0.50;;
14900;SDS011;7542;49.078;9.194;2023-10-31T03:37:41;0.60;;;0.60;;
14900;SDS011;7542;49.078;9.194;2023-10-31T03:38:43;0.50;;;0.50;;
14900;SDS011;7542;49.078;9.194;2023-10-31T03:39:45;0.70;;;0.70;;
14900;SDS011;7542;49.078;9.194;2023-10-31T03:40:48;0.63;;;0.63;;
14900;SDS011;7542;49.078;9.194;2023-10-31T03:41:50;0.50;;;0.50;;
14900;SDS011;7542;49.078;9.194;2023-10-31T03:42:52;0.80;;;0.80;;
14900;SDS011;7542;49.078;9.194;2023-10-31T03:43:55;0.67;;;0.67;;
14900;SDS011;7542;49.078;9.194;2023-10-31T03:44:57;0.52;;;0.52;;
14900;SDS011;7542;49.078;9.194;2023-10-31T03:46:00;0.60;;;0.60;;
14900;SDS011;7542;49.078;9.194;2023-10-31T03:47:03;0.47;;;0.47;;
14900;SDS011;7542;49.078;9.194;2023-10-31T03:48:05;0.60;;;0.60;;
14900;SDS011;7542;49.078;9.194;2023-10-31T03:49:08;0.60;;;0.60;;
14900;SDS011;7542;49.078;9.194;2023-10-31T03:50:10;0.50;;;0.50;;
14900;SDS011;7542;49.078;9.194;2023-10-31T03:51:13;0.40;;;0.40;;
14900;SDS011;7542;49.078;9.194;2023-10-31T03:52:15;0.40;;;0.40;;
14900;SDS011;7542;49.078;9.194;2023-10-31T03:53:18;0.30;;;0.30;;
14900;SDS011;7542;49.078;9.194;2023-10-31T03:54:21;0.55;;;0.55;;
14900;SDS011;7542;49.078;9.194;2023-10-31T03:55:24;0.55;;;0.55;;
14900;SDS011;7542;49.078;9.194;2023-10-31T03:56:26;0.50;;;0.50;;
14900;SDS011;7542;49.078;9.194;2023-10-31T03:57:29;0.52;;;0.52;;
14900;SDS011;7542;49.078;9.194;2023-10-31T03:58:32;0.50;;;0.50;;
14900;SDS011;7542;49.078;9.194;2023-10-31T03:59:36;0.70;;;0.70;;
14900;SDS011;7542;49.078;9.194;2023-10-31T04:00:39;0.57;;;0.57;;
14900;SDS011;7542;49.078;9.194;2023-10-31T04:01:42;0.60;;;0.60;;
14900;SDS011;7542;49.078;9.194;2023-10-31T04:02:45;0.47;;;0.47;;
14900;SDS011;7542;49.078;9.194;2023-10-31T04:03:49;0.37;;;0.37;;
14900;SDS011;7542;49.078;9.194;2023-10-31T04:04:51;0.73;;;0.73;;
14900;SDS011;7542;49.078;9.194;2023-10-31T04:05:54;0.43;;;0.43;;
14900;SDS011;7542;49.078;9.194;2023-10-31T04:06:56;0.52;;;0.52;;
14900;SDS011;7542;49.078;9.194;2023-10-31T04:07:58;0.60;;;0.60;;
14900;SDS011;7542;49.078;9.194;2023-10-31T04:09:02;0.50;;;0.50;;
14900;SDS011;7542;49.078;9.194;2023-10-31T04:10:05;0.60;;;0.60;;
14900;SDS011;7542;49.078;9.194;2023-10-31T04:11:08;0.70;;;0.70;;
14900;SDS011;7542;49.078;9.194;2023-10-31T04:12:10;0.50;;;0.50;;
14900;SDS011;7542;49.078;9.194;2023-10-31T04:13:12;0.37;;;0.37;;
14900;SDS011;7542;49.078;9.194;2023-10-31T04:14:15;0.40;;;0.40;;
14900;SDS011;7542;49.078;9.194;2023-10-31T04:15:17;0.70;;;0.70;;
14900;SDS011;7542;49.078;9.194;2023-10-31T04:16:20;1.27;;;0.80;;
14900;SDS011;7542;49.078;9.194;2023-10-31T04:17:23;0.53;;;0.50;;
14900;SDS011;7542;49.078;9.194;2023-10-31T04:18:26;0.52;;;0.52;;
14900;SDS011;7542;49.078;9.194;2023-10-31T04:19:28;0.50;;;0.50;;
14900;SDS011;7542;49.078;9.194;2023-10-31T04:20:31;0.70;;;0.70;;
14900;SDS011;7542;49.078;9.194;2023-10-31T04:21:33;0.60;;;0.60;;
14900;SDS011;7542;49.078;9.194;2023-10-31T04:22:36;0.43;;;0.43;;
14900;SDS011;7542;49.078;9.194;2023-10-31T04:23:38;0.40;;;0.40;;
14900;SDS011;7542;49.078;9.194;2023-10-31T04:24:41;0.50;;;0.50;;
14900;SDS011;7542;49.078;9.194;2023-10-31T04:25:44;0.70;;;0.70;;
14900;SDS011;7542;49.078;9.194;2023-10-31T04:26:47;0.38;;;0.38;;
14900;SDS011;7542;49.078;9.194;2023-10-31T04:27:50;0.57;;;0.57;;
14900;SDS011;7542;49.078;9.194;2023-10-31T04:28:52;0.47;;;0.47;;
14900;SDS011;7542;49.078;9.194;2023-10-31T04:29:55;0.60;;;0.60;;
14900;SDS011;7542;49.078;9.194;2023-10-31T04:30:57;0.57;;;0.57;;
14900;SDS011;7542;49.078;9.194;2023-10-31T04:32:00;0.50;;;0.50;;
14900;SDS011;7542;49.078;9.194;2023-10-31T04:33:03;0.67;;;0.67;;
14900;SDS011;7542;49.078;9.194;2023-10-31T04:34:05;0.50;;;0.50;;
14900;SDS011;7542;49.078;9.194;2023-10-31T04:35:08;0.50;;;0.50;;
14900;SDS011;7542;49.078;9.194;2023-10-31T04:36:10;1.27;;;0.53;;
14900;SDS011;7542;49.078;9.194;2023-10-31T04:37:12;0.53;;;0.53;;
14900;SDS011;7542;49.078;9.194;2023-10-31T04:38:15;0.50;;;0.50;;
14900;SDS011;7542;49.078;9.194;2023-10-31T04:39:17;0.53;;;0.53;;
14900;SDS011;7542;49.078;9.194;2023-10-31T04:40:20;0.50;;;0.50;;
14900;SDS011;7542;49.078;9.194;2023-10-31T04:41:23;0.50;;;0.50;;
14900;SDS011;7542;49.078;9.194;2023-10-31T04:42:25;0.43;;;0.43;;
14900;SDS011;7542;49.078;9.194;2023-10-31T04:43:27;0.63;;;0.50;;
14900;SDS011;7542;49.078;9.194;2023-10-31T04:44:30;0.40;;;0.40;;
14900;SDS011;7542;49.078;9.194;2023-10-31T04:45:32;0.53;;;0.50;;
14900;SDS011;7542;49.078;9.194;2023-10-31T04:46:34;0.50;;;0.50;;
14900;SDS011;7542;49.078;9.194;2023-10-31T04:47:37;0.35;;;0.35;;
14900;SDS011;7542;49.078;9.194;2023-10-31T04:48:40;0.70;;;0.70;;
14900;SDS011;7542;49.078;9.194;2023-10-31T04:49:42;0.40;;;0.40;;
14900;SDS011;7542;49.078;9.194;2023-10-31T04:50:45;0.60;;;0.60;;
14900;SDS011;7542;49.078;9.194;2023-10-31T04:51:47;0.60;;;0.60;;
14900;SDS011;7542;49.078;9.194;2023-10-31T04:52:50;0.50;;;0.50;;
14900;SDS011;7542;49.078;9.194;2023-10-31T04:53:52;0.40;;;0.40;;
14900;SDS011;7542;49.078;9.194;2023-10-31T04:54:55;0.50;;;0.50;;
14900;SDS011;7542;49.078;9.194;2023-10-31T04:55:57;0.50;;;0.50;;
14900;SDS011;7542;49.078;9.194;2023-10-31T04:57:01;0.40;;;0.40;;
14900;SDS011;7542;49.078;9.194;2023-10-31T04:58:04;0.50;;;0.50;;
14900;SDS011;7542;49.078;9.194;2023-10-31T04:59:07;0.40;;;0.40;;
14900;SDS011;7542;49.078;9.194;2023-10-31T05:00:09;0.40;;;0.40;;
14900;SDS011;7542;49.078;9.194;2023-10-31T05:01:12;0.57;;;0.57;;
14900;SDS011;7542;49.078;9.194;2023-10-31T05:02:15;0.40;;;0.40;;
14900;SDS011;7542;49.078;9.194;2023-10-31T05:03:17;0.40;;;0.40;;
14900;SDS011;7542;49.078;9.194;2023-10-31T05:04:20;0.50;;;0.50;;
14900;SDS011;7542;49.078;9.194;2023-10-31T05:05:22;0.57;;;0.57;;
14900;SDS011;7542;49.078;9.194;2023-10-31T05:06:25;0.40;;;0.40;;
14900;SDS011;7542;49.078;9.194;2023-10-31T05:07:29;0.43;;;0.30;;
14900;SDS011;7542;49.078;9.194;2023-10-31T05:08:34;1.20;;;0.50;;
14900;SDS011;7542;49.078;9.194;2023-10-31T05:09:36;0.20;;;0.20;;
14900;SDS011;7542;49.078;9.194;2023-10-31T05:10:38;0.40;;;0.40;;
14900;SDS011;7542;49.078;9.194;2023-10-31T05:11:41;0.40;;;0.40;;
14900;SDS011;7542;49.078;9.194;2023-10-31T05:12:43;0.40;;;0.40;;
14900;SDS011;7542;49.078;9.194;2023-10-31T05:13:46;0.30;;;0.30;;
14900;SDS011;7542;49.078;9.194;2023-10-31T05:14:48;0.40;;;0.40;;
14900;SDS011;7542;49.078;9.194;2023-10-31T05:15:51;0.40;;;0.40;;
14900;SDS011;7542;49.078;9.194;2023-10-31T05:16:53;0.30;;;0.30;;
14900;SDS011;7542;49.078;9.194;2023-10-31T05:17:55;0.43;;;0.43;;
14900;SDS011;7542;49.078;9.194;2023-10-31T05:18:58;0.70;;;0.70;;
14900;SDS011;7542;49.078;9.194;2023-10-31T05:20:05;0.40;;;0.40;;
14900;SDS011;7542;49.078;9.194;2023-10-31T05:21:08;0.33;;;0.33;;
14900;SDS011;7542;49.078;9.194;2023-10-31T05:22:10;0.40;;;0.40;;
14900;SDS011;7542;49.078;9.194;2023-10-31T05:23:13;0.30;;;0.30;;
14900;SDS011;7542;49.078;9.194;2023-10-31T05:24:15;0.30;;;0.30;;
14900;SDS011;7542;49.078;9.194;2023-10-31T05:25:17;0.43;;;0.43;;
14900;SDS011;7542;49.078;9.194;2023-10-31T05:26:20;0.40;;;0.40;;
14900;SDS011;7542;49.078;9.194;2023-10-31T05:27:22;0.40;;;0.40;;
14900;SDS011;7542;49.078;9.194;2023-10-31T05:28:25;0.50;;;0.50;;
14900;SDS011;7542;49.078;9.194;2023-10-31T05:29:27;0.40;;;0.40;;
14900;SDS011;7542;49.078;9.194;2023-10-31T05:30:31;0.43;;;0.43;;
14900;SDS011;7542;49.078;9.194;2023-10-31T05:31:33;0.30;;;0.30;;
14900;SDS011;7542;49.078;9.194;2023-10-31T05:32:36;0.33;;;0.33;;
14900;SDS011;7542;49.078;9.194;2023-10-31T05:33:39;0.50;;;0.50;;
14900;SDS011;7542;49.078;9.194;2023-10-31T05:34:42;0.50;;;0.50;;
14900;SDS011;7542;49.078;9.194;2023-10-31T05:35:44;0.43;;;0.43;;
14900;SDS011;7542;49.078;9.194;2023-10-31T05:36:46;0.50;;;0.40;;
14900;SDS011;7542;49.078;9.194;2023-10-31T05:37:49;0.30;;;0.30;;
14900;SDS011;7542;49.078;9.194;2023-10-31T05:38:51;0.50;;;0.50;;
14900;SDS011;7542;49.078;9.194;2023-10-31T05:39:54;0.43;;;0.43;;
14900;SDS011;7542;49.078;9.194;2023-10-31T05:40:56;0.50;;;0.50;;
14900;SDS011;7542;49.078;9.194;2023-10-31T05:41:58;0.93;;;0.30;;
14900;SDS011;7542;49.078;9.194;2023-10-31T05:43:01;0.40;;;0.40;;
14900;SDS011;7542;49.078;9.194;2023-10-31T05:44:04;0.33;;;0.33;;
14900;SDS011;7542;49.078;9.194;2023-10-31T05:45:07;0.57;;;0.57;;
14900;SDS011;7542;49.078;9.194;2023-10-31T05:46:10;0.37;;;0.37;;
14900;SDS011;7542;49.078;9.194;2023-10-31T05:47:14;0.40;;;0.40;;
14900;SDS011;7542;49.078;9.194;2023-10-31T05:48:16;0.30;;;0.30;;
14900;SDS011;7542;49.078;9.194;2023-10-31T05:49:18;0.40;;;0.40;;
14900;SDS011;7542;49.078;9.194;2023-10-31T05:50:21;0.32;;;0.32;;
14900;SDS011;7542;49.078;9.194;2023-10-31T05:51:24;0.30;;;0.30;;
14900;SDS011;7542;49.078;9.194;2023-10-31T05:52:29;0.40;;;0.40;;
14900;SDS011;7542;49.078;9.194;2023-10-31T05:53:33;0.40;;;0.40;;
14900;SDS011;7542;49.078;9.194;2023-10-31T05:54:36;0.47;;;0.47;;
14900;SDS011;7542;49.078;9.194;2023-10-31T05:55:38;0.30;;;0.30;;
14900;SDS011;7542;49.078;9.194;2023-10-31T05:56:41;0.40;;;0.40;;
14900;SDS011;7542;49.078;9.194;2023-10-31T05:57:44;0.30;;;0.30;;
14900;SDS011;7542;49.078;9.194;2023-10-31T05:58:46;0.27;;;0.27;;
14900;SDS011;7542;49.078;9.194;2023-10-31T05:59:49;0.40;;;0.40;;
14900;SDS011;7542;49.078;9.194;2023-10-31T06:00:51;0.33;;;0.33;;
14900;SDS011;7542;49.078;9.194;2023-10-31T06:01:53;0.60;;;0.60;;
14900;SDS011;7542;49.078;9.194;2023-10-31T06:02:56;0.30;;;0.30;;
14900;SDS011;7542;49.078;9.194;2023-10-31T06:03:58;0.30;;;0.30;;
14900;SDS011;7542;49.078;9.194;2023-10-31T06:05:00;0.30;;;0.30;;
14900;SDS011;7542;49.078;9.194;2023-10-31T06:06:05;0.30;;;0.30;;
14900;SDS011;7542;49.078;9.194;2023-10-31T06:07:08;0.50;;;0.50;;
14900;SDS011;7542;49.078;9.194;2023-10-31T06:08:11;0.30;;;0.30;;
14900;SDS011;7542;49.078;9.194;2023-10-31T06:09:13;0.40;;;0.40;;
14900;SDS011;7542;49.078;9.194;2023-10-31T06:10:16;0.40;;;0.40;;
14900;SDS011;7542;49.078;9.194;2023-10-31T06:11:18;0.30;;;0.30;;
14900;SDS011;7542;49.078;9.194;2023-10-31T06:12:21;0.40;;;0.40;;
14900;SDS011;7542;49.078;9.194;2023-10-31T06:13:23;0.40;;;0.40;;
14900;SDS011;7542;49.078;9.194;2023-10-31T06:14:29;0.20;;;0.20;;
14900;SDS011;7542;49.078;9.194;2023-10-31T06:15:31;0.47;;;0.47;;
14900;SDS011;7542;49.078;9.194;2023-10-31T06:16:39;0.77;;;0.43;;
14900;SDS011;7542;49.078;9.194;2023-10-31T06:17:43;0.23;;;0.23;;
14900;SDS011;7542;49.078;9.194;2023-10-31T06:18:45;0.40;;;0.40;;
14900;SDS011;7542;49.078;9.194;2023-10-31T06:19:47;0.40;;;0.40;;
14900;SDS011;7542;49.078;9.194;2023-10-31T06:20:50;0.33;;;0.33;;
14900;SDS011;7542;49.078;9.194;2023-10-31T06:21:52;0.30;;;0.30;;
14900;SDS011;7542;49.078;9.194;2023-10-31T06:22:54;0.30;;;0.30;;
14900;SDS011;7542;49.078;9.194;2023-10-31T06:23:57;0.30;;;0.30;;